Time;durP1;ratioP1;P1;durP2;ratioP2;P2;SDS_P1;SDS_P2;PMS_P1;PMS_P2;Temp;Humidity;BMP_temperature;BMP_pressure;BME280_temperature;BME280_humidity;BME280_pressure;Samples;Min_cycle;Max_cycle;Signal;HPM_P1;HPM_P2
2022/05/21 00:02:09;;;;;;;2.38;0.80;;;;;;;;;;5053616;28;20032;-77
2022/05/21 00:04:36;;;;;;;1.10;1.00;;;;;;;;;;5054456;28;20203;-78
2022/05/21 00:07:02;;;;;;;2.05;1.17;;;;;;;;;;5037904;28;20033;-75
2022/05/21 00:09:28;;;;;;;2.08;1.10;;;;;;;;;;5055764;28;20025;-78
2022/05/21 00:11:54;;;;;;;3.10;1.30;;;;;;;;;;5054285;28;20369;-76
2022/05/21 00:14:20;;;;;;;1.63;1.15;;;;;;;;;;5037474;28;20028;-78
2022/05/21 00:16:46;;;;;;;2.85;1.13;;;;;;;;;;5021277;28;20032;-77
2022/05/21 00:19:12;;;;;;;3.92;1.42;;;;;;;;;;5053972;28;20025;-75
2022/05/21 00:21:37;;;;;;;1.75;1.27;;;;;;;;;;5055222;28;20033;-77
2022/05/21 00:24:03;;;;;;;2.53;1.20;;;;;;;;;;5053928;28;20037;-77
2022/05/21 00:26:28;;;;;;;4.55;1.65;;;;;;;;;;5021218;28;20044;-77
2022/05/21 00:28:54;;;;;;;2.10;1.35;;;;;;;;;;5053727;28;20082;-77
2022/05/21 00:31:19;;;;;;;1.63;1.00;;;;;;;;;;5053431;28;20428;-77
2022/05/21 00:33:46;;;;;;;4.32;1.45;;;;;;;;;;5055155;28;20123;-76
2022/05/21 00:36:12;;;;;;;3.53;1.48;;;;;;;;;;5036909;28;20115;-76
2022/05/21 00:38:39;;;;;;;4.25;1.98;;;;;;;;;;5053465;28;20488;-76
2022/05/21 00:41:06;;;;;;;2.60;1.40;;;;;;;;;;5053487;28;20392;-76
2022/05/21 00:43:33;;;;;;;2.13;1.40;;;;;;;;;;5037191;28;20037;-75
2022/05/21 00:45:59;;;;;;;2.70;1.38;;;;;;;;;;5055010;28;20407;-75
2022/05/21 00:48:25;;;;;;;3.20;1.60;;;;;;;;;;5020298;28;20036;-76
2022/05/21 00:50:52;;;;;;;2.72;1.48;;;;;;;;;;5036718;28;20505;-77
2022/05/21 00:53:18;;;;;;;2.67;1.50;;;;;;;;;;5053444;28;20143;-77
2022/05/21 00:55:45;;;;;;;2.25;1.58;;;;;;;;;;5036710;28;20510;-76
2022/05/21 01:00:57;;;;;;;3.10;1.33;;;;;;;;;;5053640;28;20067;-76
2022/05/21 01:03:24;;;;;;;3.25;1.67;;;;;;;;;;5036557;28;20116;-76
2022/05/21 01:05:49;;;;;;;3.67;1.60;;;;;;;;;;5052965;28;20040;-76
2022/05/21 01:08:15;;;;;;;3.13;1.67;;;;;;;;;;5036421;28;20033;-76
2022/05/21 01:10:53;;;;;;;1.92;1.30;;;;;;;;;;5053095;28;20033;-77
2022/05/21 01:13:20;;;;;;;3.58;1.38;;;;;;;;;;5036095;28;20480;-77
2022/05/21 01:15:47;;;;;;;1.52;1.20;;;;;;;;;;5053028;28;20017;-77
2022/05/21 01:18:13;;;;;;;3.97;1.55;;;;;;;;;;5053321;28;20056;-76
2022/05/21 01:20:44;;;;;;;1.95;1.40;;;;;;;;;;5053053;28;20064;-77
2022/05/21 01:23:11;;;;;;;4.03;1.45;;;;;;;;;;5054228;28;20041;-77
2022/05/21 01:25:38;;;;;;;2.40;1.50;;;;;;;;;;5036019;28;20043;-76
2022/05/21 01:28:06;;;;;;;2.30;1.10;;;;;;;;;;5035985;28;20526;-76
2022/05/21 01:30:38;;;;;;;2.00;1.40;;;;;;;;;;5019888;28;20032;-76
2022/05/21 01:33:05;;;;;;;3.17;1.40;;;;;;;;;;5035969;28;20047;-76
2022/05/21 01:35:31;;;;;;;2.15;1.50;;;;;;;;;;5052464;28;20017;-76
2022/05/21 01:37:57;;;;;;;2.28;1.35;;;;;;;;;;5035885;28;20032;-76
2022/05/21 01:40:23;;;;;;;2.45;1.48;;;;;;;;;;5052402;28;20049;-76
2022/05/21 01:44:37;;;;;;;4.25;1.40;;;;;;;;;;5018608;28;20487;-76
2022/05/21 01:45:34;;;;;;;2.10;1.02;;;;;;;;;;5053602;28;20036;-76
2022/05/21 01:48:02;;;;;;;3.40;1.50;;;;;;;;;;5035821;28;20029;-76
2022/05/21 01:50:27;;;;;;;1.48;1.20;;;;;;;;;;5053616;28;20029;-76
2022/05/21 01:52:53;;;;;;;2.45;1.30;;;;;;;;;;5035557;28;20039;-76
2022/05/21 01:55:18;;;;;;;4.60;1.23;;;;;;;;;;5052245;28;20390;-76
2022/05/21 01:57:44;;;;;;;2.80;1.48;;;;;;;;;;5052453;28;20029;-75
2022/05/21 02:00:10;;;;;;;1.60;1.10;;;;;;;;;;5052354;28;20025;-76
2022/05/21 02:02:35;;;;;;;2.85;1.30;;;;;;;;;;5052121;28;20505;-76
2022/05/21 02:05:01;;;;;;;2.17;1.13;;;;;;;;;;5035154;28;20033;-76
2022/05/21 02:07:26;;;;;;;1.95;1.30;;;;;;;;;;5035303;28;20033;-76
2022/05/21 02:09:51;;;;;;;1.95;1.30;;;;;;;;;;5053073;28;20037;-76
2022/05/21 02:12:19;;;;;;;1.77;1.20;;;;;;;;;;5051961;28;20033;-76
2022/05/21 02:14:44;;;;;;;2.83;1.52;;;;;;;;;;5051911;28;20071;-75
2022/05/21 02:17:10;;;;;;;2.35;1.13;;;;;;;;;;5051679;28;20021;-76
2022/05/21 02:19:35;;;;;;;3.78;1.75;;;;;;;;;;5051776;28;20033;-76
2022/05/21 02:22:00;;;;;;;2.08;1.30;;;;;;;;;;5051644;28;20037;-76
2022/05/21 02:24:26;;;;;;;3.22;1.45;;;;;;;;;;5034434;28;20029;-76
2022/05/21 02:26:51;;;;;;;3.33;1.30;;;;;;;;;;5035030;28;20465;-76
2022/05/21 02:29:18;;;;;;;3.42;1.52;;;;;;;;;;5051300;28;20035;-75
2022/05/21 02:31:44;;;;;;;3.20;1.40;;;;;;;;;;5053033;28;20021;-75
2022/05/21 02:34:09;;;;;;;3.58;1.50;;;;;;;;;;5051451;28;20048;-76
2022/05/21 02:39:31;;;;;;;;;;;;;;;;;;5051912;28;20525;-76
2022/05/21 02:41:57;;;;;;;2.95;1.40;;;;;;;;;;5051789;28;19916;-76
2022/05/21 02:44:23;;;;;;;2.58;1.45;;;;;;;;;;5034736;28;20028;-76
2022/05/21 02:46:48;;;;;;;3.30;1.40;;;;;;;;;;5035232;28;20086;-76
2022/05/21 02:49:14;;;;;;;7.30;1.55;;;;;;;;;;5034470;28;20033;-76
2022/05/21 02:51:40;;;;;;;3.65;2.05;;;;;;;;;;5050968;28;20060;-76
2022/05/21 02:54:06;;;;;;;1.95;1.10;;;;;;;;;;5050868;28;20052;-76
2022/05/21 02:56:33;;;;;;;1.90;1.40;;;;;;;;;;5034167;28;20098;-76
2022/05/21 02:58:58;;;;;;;3.45;1.15;;;;;;;;;;5034396;28;20029;-76
2022/05/21 03:01:24;;;;;;;4.07;1.50;;;;;;;;;;5034244;28;20025;-76
2022/05/21 03:03:49;;;;;;;2.75;1.45;;;;;;;;;;5052168;28;20033;-76
2022/05/21 03:06:15;;;;;;;4.22;1.38;;;;;;;;;;5050939;28;20044;-76
2022/05/21 03:11:24;;;;;;;2.83;1.02;;;;;;;;;;5051028;28;20027;-76
2022/05/21 03:13:49;;;;;;;4.00;1.40;;;;;;;;;;5050950;28;20049;-76
2022/05/21 03:16:15;;;;;;;3.15;1.30;;;;;;;;;;5034343;28;20136;-76
2022/05/21 03:18:40;;;;;;;3.38;1.80;;;;;;;;;;5034194;28;20025;-76
2022/05/21 03:21:05;;;;;;;2.17;1.23;;;;;;;;;;5034015;28;20040;-76
2022/05/21 03:23:31;;;;;;;3.85;1.52;;;;;;;;;;5034644;28;20443;-76
2022/05/21 03:25:56;;;;;;;5.18;1.38;;;;;;;;;;5034378;28;20025;-76
2022/05/21 03:28:21;;;;;;;5.05;1.42;;;;;;;;;;5050503;28;20398;-76
2022/05/21 03:30:47;;;;;;;1.67;1.13;;;;;;;;;;5050927;28;20494;-76
2022/05/21 03:33:13;;;;;;;2.88;1.45;;;;;;;;;;5033978;28;20031;-76
2022/05/21 03:35:41;;;;;;;2.97;1.30;;;;;;;;;;5033408;28;20033;-76
2022/05/21 03:38:07;;;;;;;2.60;1.63;;;;;;;;;;5050199;28;20039;-77
2022/05/21 03:40:33;;;;;;;4.10;1.30;;;;;;;;;;5053682;28;20102;-75
2022/05/21 03:42:58;;;;;;;3.78;1.65;;;;;;;;;;5037419;28;20423;-76
2022/05/21 03:45:25;;;;;;;2.33;1.27;;;;;;;;;;5036958;28;20032;-76
2022/05/21 03:47:51;;;;;;;4.15;1.40;;;;;;;;;;5054107;28;20308;-76
2022/05/21 03:50:21;;;;;;;3.55;1.40;;;;;;;;;;5036984;28;20036;-76
2022/05/21 03:52:46;;;;;;;3.10;1.40;;;;;;;;;;5053686;28;20039;-76
2022/05/21 03:55:12;;;;;;;5.80;1.50;;;;;;;;;;5037179;28;20028;-77
2022/05/21 03:57:38;;;;;;;4.10;1.60;;;;;;;;;;5054109;28;20025;-77
2022/05/21 04:00:05;;;;;;;5.07;1.88;;;;;;;;;;5053783;28;20027;-77
2022/05/21 04:02:32;;;;;;;4.50;1.50;;;;;;;;;;5053714;28;20500;-77
2022/05/21 04:04:58;;;;;;;5.35;1.60;;;;;;;;;;5037050;28;20028;-77
2022/05/21 04:07:23;;;;;;;5.03;1.73;;;;;;;;;;5053871;28;20028;-77
2022/05/21 04:09:49;;;;;;;4.20;1.50;;;;;;;;;;5053792;28;20124;-77
2022/05/21 04:12:14;;;;;;;4.93;1.60;;;;;;;;;;5036978;28;20032;-77
2022/05/21 04:14:40;;;;;;;2.63;1.40;;;;;;;;;;5053713;28;20111;-76
2022/05/21 04:17:09;;;;;;;3.08;1.25;;;;;;;;;;5071557;28;20032;-77
2022/05/21 04:19:34;;;;;;;4.85;1.70;;;;;;;;;;5071853;28;20488;-78
2022/05/21 04:22:00;;;;;;;7.15;1.83;;;;;;;;;;5037082;28;20029;-77
2022/05/21 04:24:25;;;;;;;3.85;1.30;;;;;;;;;;5072680;28;20047;-77
2022/05/21 04:26:51;;;;;;;5.60;1.60;;;;;;;;;;5054933;28;20056;-77
2022/05/21 04:29:16;;;;;;;5.00;2.00;;;;;;;;;;5054828;28;20032;-77
2022/05/21 04:31:45;;;;;;;2.85;1.42;;;;;;;;;;5054325;28;20029;-76
2022/05/21 04:34:11;;;;;;;3.53;1.85;;;;;;;;;;5072238;28;20383;-76
2022/05/21 04:36:36;;;;;;;3.78;1.60;;;;;;;;;;5054421;28;20025;-77
2022/05/21 04:39:02;;;;;;;3.55;1.52;;;;;;;;;;5055769;28;20044;-78
2022/05/21 04:41:28;;;;;;;6.05;1.73;;;;;;;;;;5039716;28;20038;-77
2022/05/21 04:43:54;;;;;;;4.10;1.50;;;;;;;;;;5073394;28;20111;-77
2022/05/21 04:46:21;;;;;;;3.92;1.40;;;;;;;;;;5075551;28;20086;-78
2022/05/21 04:48:47;;;;;;;3.75;1.27;;;;;;;;;;5042448;28;20360;-77
2022/05/21 04:51:12;;;;;;;5.63;1.67;;;;;;;;;;5057549;28;20050;-78
2022/05/21 04:53:38;;;;;;;7.35;1.60;;;;;;;;;;5057425;28;20024;-77
2022/05/21 04:56:04;;;;;;;3.53;1.48;;;;;;;;;;5075701;28;20024;-78
2022/05/21 04:58:30;;;;;;;5.40;2.22;;;;;;;;;;5057254;28;20112;-78
2022/05/21 05:00:56;;;;;;;4.18;1.60;;;;;;;;;;5040442;28;20035;-77
2022/05/21 05:03:21;;;;;;;4.03;1.88;;;;;;;;;;5057209;28;20453;-77
2022/05/21 05:05:47;;;;;;;3.67;1.65;;;;;;;;;;5056987;28;20040;-77
2022/05/21 05:08:15;;;;;;;6.22;1.60;;;;;;;;;;5057352;28;20032;-78
2022/05/21 05:10:40;;;;;;;6.32;1.60;;;;;;;;;;5057361;28;20574;-78
2022/05/21 05:13:06;;;;;;;4.05;1.50;;;;;;;;;;5074907;28;20108;-77
2022/05/21 05:15:32;;;;;;;4.50;1.70;;;;;;;;;;5074830;28;20066;-77
2022/05/21 05:18:09;;;;;;;5.65;1.77;;;;;;;;;;5040328;28;20020;-77
2022/05/21 05:20:35;;;;;;;4.68;1.55;;;;;;;;;;5057066;28;20028;-77
2022/05/21 05:23:01;;;;;;;7.32;1.65;;;;;;;;;;5074692;28;20024;-78
2022/05/21 05:25:27;;;;;;;5.97;1.92;;;;;;;;;;5056736;28;20062;-77
2022/05/21 05:27:52;;;;;;;5.63;2.03;;;;;;;;;;5056698;28;20524;-77
2022/05/21 05:30:19;;;;;;;3.90;1.65;;;;;;;;;;5039965;28;20181;-77
2022/05/21 05:32:45;;;;;;;4.30;1.90;;;;;;;;;;5056827;28;20024;-77
2022/05/21 05:35:11;;;;;;;5.85;1.83;;;;;;;;;;5057265;28;20486;-76
2022/05/21 05:37:37;;;;;;;7.40;1.60;;;;;;;;;;5057040;28;20039;-77
2022/05/21 05:40:04;;;;;;;4.22;1.50;;;;;;;;;;5053603;28;20049;-75
2022/05/21 05:42:30;;;;;;;9.43;1.50;;;;;;;;;;5037611;28;20033;-76
2022/05/21 05:44:55;;;;;;;5.63;1.25;;;;;;;;;;5038080;28;20035;-76
2022/05/21 05:47:21;;;;;;;3.30;1.40;;;;;;;;;;5052783;28;20032;-77
2022/05/21 05:49:46;;;;;;;4.25;1.52;;;;;;;;;;5035903;28;20074;-79
2022/05/21 05:52:12;;;;;;;7.60;2.33;;;;;;;;;;5035731;28;20151;-77
2022/05/21 05:54:37;;;;;;;15.43;4.35;;;;;;;;;;5052440;28;20029;-77
2022/05/21 05:57:09;;;;;;;11.30;3.55;;;;;;;;;;5052010;28;20037;-78
2022/05/21 05:59:48;;;;;;;7.65;3.30;;;;;;;;;;5051261;28;20028;-77
2022/05/21 06:04:58;;;;;;;8.23;3.30;;;;;;;;;;5052595;28;20112;-77
2022/05/21 06:07:23;;;;;;;13.50;4.40;;;;;;;;;;5052652;28;20056;-78
2022/05/21 06:09:49;;;;;;;9.55;3.70;;;;;;;;;;5035345;28;20124;-78
2022/05/21 06:12:15;;;;;;;9.25;3.55;;;;;;;;;;5052395;28;20399;-77
2022/05/21 06:14:41;;;;;;;13.05;4.07;;;;;;;;;;5035273;28;20029;-79
2022/05/21 06:17:08;;;;;;;14.38;5.30;;;;;;;;;;5051760;28;20059;-78
2022/05/21 06:19:34;;;;;;;9.43;3.53;;;;;;;;;;5051581;28;20021;-78
2022/05/21 06:22:02;;;;;;;10.48;3.80;;;;;;;;;;5035046;28;20036;-79
2022/05/21 06:24:27;;;;;;;8.15;4.00;;;;;;;;;;5051801;28;20028;-79
2022/05/21 06:26:53;;;;;;;13.40;3.65;;;;;;;;;;5052948;28;20029;-79
2022/05/21 06:29:18;;;;;;;11.18;3.55;;;;;;;;;;5051460;28;20367;-79
2022/05/21 06:31:43;;;;;;;8.90;3.83;;;;;;;;;;5051413;28;20094;-79
2022/05/21 06:34:09;;;;;;;8.98;3.30;;;;;;;;;;5051815;28;20043;-78
2022/05/21 06:36:35;;;;;;;18.98;3.70;;;;;;;;;;5053146;28;20476;-79
2022/05/21 06:39:00;;;;;;;6.68;3.45;;;;;;;;;;5051470;28;20041;-79
2022/05/21 06:41:29;;;;;;;10.57;3.83;;;;;;;;;;5035569;28;20029;-77
2022/05/21 06:43:55;;;;;;;6.82;3.33;;;;;;;;;;5020037;28;20409;-77
2022/05/21 06:46:20;;;;;;;7.97;4.00;;;;;;;;;;5051252;28;20086;-79
2022/05/21 06:48:46;;;;;;;8.52;3.97;;;;;;;;;;5052084;28;20033;-78
2022/05/21 06:51:12;;;;;;;9.45;3.90;;;;;;;;;;5053024;28;20025;-77
2022/05/21 06:53:37;;;;;;;10.02;3.63;;;;;;;;;;5054510;28;20082;-77
2022/05/21 06:56:07;;;;;;;9.38;4.05;;;;;;;;;;5053747;28;20044;-78
2022/05/21 06:58:33;;;;;;;6.47;2.88;;;;;;;;;;5035370;28;20029;-77
2022/05/21 07:00:58;;;;;;;7.82;3.00;;;;;;;;;;5050981;28;20428;-77
2022/05/21 07:03:23;;;;;;;6.68;3.03;;;;;;;;;;5034042;28;20029;-77
2022/05/21 07:08:33;;;;;;;5.68;2.80;;;;;;;;;;5052385;28;20128;-78
2022/05/21 07:10:59;;;;;;;6.28;2.47;;;;;;;;;;5050518;28;20103;-78
2022/05/21 07:13:24;;;;;;;5.13;2.83;;;;;;;;;;5050642;28;20029;-78
2022/05/21 07:15:52;;;;;;;8.05;2.75;;;;;;;;;;5050800;28;20422;-78
2022/05/21 07:18:19;;;;;;;7.38;2.50;;;;;;;;;;5050686;28;20032;-78
2022/05/21 07:20:45;;;;;;;6.05;2.53;;;;;;;;;;5050510;28;20047;-78
2022/05/21 07:23:10;;;;;;;4.90;2.25;;;;;;;;;;5050631;28;20033;-78
2022/05/21 07:25:36;;;;;;;7.90;2.95;;;;;;;;;;5051972;28;20044;-78
2022/05/21 07:28:02;;;;;;;4.85;2.30;;;;;;;;;;5050686;28;20105;-78
2022/05/21 07:30:28;;;;;;;5.60;2.58;;;;;;;;;;5050629;28;20025;-78
2022/05/21 07:32:55;;;;;;;7.03;2.42;;;;;;;;;;5050683;28;20356;-78
2022/05/21 07:35:22;;;;;;;7.47;2.85;;;;;;;;;;5050088;28;20024;-78
2022/05/21 07:37:48;;;;;;;9.05;2.53;;;;;;;;;;5033336;28;20387;-79
2022/05/21 07:40:15;;;;;;;5.97;2.25;;;;;;;;;;5017192;28;20049;-77
2022/05/21 07:42:41;;;;;;;5.57;2.22;;;;;;;;;;5050440;28;20443;-77
2022/05/21 07:45:08;;;;;;;4.30;1.92;;;;;;;;;;5050423;28;20025;-77
2022/05/21 07:47:34;;;;;;;5.88;2.05;;;;;;;;;;5050350;28;20029;-77
2022/05/21 07:49:59;;;;;;;7.60;2.10;;;;;;;;;;5051721;28;20037;-77
2022/05/21 07:52:26;;;;;;;6.28;2.05;;;;;;;;;;5052067;28;20033;-77
2022/05/21 07:54:52;;;;;;;5.47;2.70;;;;;;;;;;5050653;28;20081;-79
2022/05/21 07:57:17;;;;;;;4.65;1.90;;;;;;;;;;5050662;28;20029;-77
2022/05/21 07:59:43;;;;;;;6.28;1.92;;;;;;;;;;5051028;28;20021;-78
2022/05/21 08:02:15;;;;;;;4.60;1.70;;;;;;;;;;5050523;28;20033;-77
2022/05/21 08:04:41;;;;;;;7.00;2.20;;;;;;;;;;5050495;28;20021;-77
2022/05/21 08:07:06;;;;;;;6.72;1.88;;;;;;;;;;5034226;28;20379;-78
2022/05/21 08:09:32;;;;;;;3.55;1.80;;;;;;;;;;5033676;28;20025;-77
2022/05/21 08:11:58;;;;;;;6.90;2.13;;;;;;;;;;5051220;28;20557;-77
2022/05/21 08:14:23;;;;;;;7.63;1.80;;;;;;;;;;5034562;28;20033;-78
2022/05/21 08:16:49;;;;;;;5.40;2.17;;;;;;;;;;5034618;28;20043;-77
2022/05/21 08:19:15;;;;;;;4.20;1.90;;;;;;;;;;5050636;28;20083;-78
2022/05/21 08:21:41;;;;;;;3.35;1.75;;;;;;;;;;5050914;28;20487;-78
2022/05/21 08:26:56;;;;;;;3.35;1.70;;;;;;;;;;5040324;28;20039;-77
2022/05/21 08:29:27;;;;;;;3.70;1.83;;;;;;;;;;5055166;28;20132;-78
2022/05/21 08:31:54;;;;;;;3.67;1.85;;;;;;;;;;5055532;28;20387;-79
2022/05/21 08:34:19;;;;;;;5.15;2.25;;;;;;;;;;5054002;28;20390;-77
2022/05/21 08:36:45;;;;;;;5.82;1.92;;;;;;;;;;5054050;28;20115;-77
2022/05/21 08:39:10;;;;;;;3.17;1.60;;;;;;;;;;5053808;28;20132;-77
2022/05/21 08:41:42;;;;;;;4.03;1.63;;;;;;;;;;5053612;28;20113;-76
2022/05/21 08:44:37;;;;;;;4.43;1.80;;;;;;;;;;5053766;28;20459;-77
2022/05/21 08:47:20;;;;;;;4.05;1.88;;;;;;;;;;5053444;28;20025;-78
2022/05/21 08:50:09;;;;;;;3.72;1.60;;;;;;;;;;5053521;28;20028;-78
2022/05/21 08:52:56;;;;;;;3.67;1.63;;;;;;;;;;5053874;28;20361;-78
2022/05/21 08:55:28;;;;;;;4.10;1.40;;;;;;;;;;5036862;28;20044;-78
2022/05/21 08:58:09;;;;;;;4.60;1.87;;;;;;;;;;5053456;28;20495;-77
2022/05/21 09:00:38;;;;;;;5.85;1.90;;;;;;;;;;5036680;28;20430;-78
2022/05/21 09:03:17;;;;;;;4.57;1.73;;;;;;;;;;5053781;28;20116;-77
2022/05/21 09:05:57;;;;;;;5.82;2.00;;;;;;;;;;5053638;28;20033;-77
2022/05/21 09:08:39;;;;;;;4.53;1.80;;;;;;;;;;5053780;28;20049;-77
2022/05/21 09:11:16;;;;;;;4.32;2.17;;;;;;;;;;5054669;28;20028;-77
2022/05/21 09:13:59;;;;;;;3.78;1.52;;;;;;;;;;5053748;28;20049;-78
2022/05/21 09:19:08;;;;;;;;;;;;;;;;;;5054841;28;20072;-76
2022/05/21 09:21:38;;;;;;;5.20;1.50;;;;;;;;;;5052675;28;19948;-77
2022/05/21 09:24:05;;;;;;;4.05;1.40;;;;;;;;;;5052867;28;20482;-76
2022/05/21 09:26:44;;;;;;;6.38;1.70;;;;;;;;;;5036041;28;20037;-76
2022/05/21 09:29:16;;;;;;;6.13;1.80;;;;;;;;;;5052455;28;20032;-76
2022/05/21 09:31:42;;;;;;;7.97;2.10;;;;;;;;;;5052890;28;20025;-76
2022/05/21 09:34:29;;;;;;;6.85;1.77;;;;;;;;;;5056311;28;20042;-76
2022/05/21 09:36:56;;;;;;;8.27;2.08;;;;;;;;;;5057275;28;20021;-76
2022/05/21 09:39:34;;;;;;;4.07;1.60;;;;;;;;;;5068432;28;20085;-76
2022/05/21 09:42:06;;;;;;;6.10;1.70;;;;;;;;;;5055302;28;20089;-76
2022/05/21 09:47:22;;;;;;;4.45;1.35;;;;;;;;;;5072372;28;20035;-76
2022/05/21 09:50:11;;;;;;;5.40;1.40;;;;;;;;;;5055575;28;20394;-76
2022/05/21 09:52:37;;;;;;;4.40;1.50;;;;;;;;;;5055504;28;20513;-76
2022/05/21 09:55:19;;;;;;;4.35;1.25;;;;;;;;;;5072025;28;20024;-77
2022/05/21 09:57:45;;;;;;;3.83;1.42;;;;;;;;;;5072128;28;20396;-76
2022/05/21 10:00:40;;;;;;;4.18;1.40;;;;;;;;;;5072042;28;20063;-76
2022/05/21 10:03:08;;;;;;;4.65;1.50;;;;;;;;;;5071273;28;20094;-76
2022/05/21 10:05:42;;;;;;;3.67;1.35;;;;;;;;;;5071396;28;20417;-77
2022/05/21 10:11:23;;;;;;;3.95;1.38;;;;;;;;;;5057607;28;20078;-77
2022/05/21 10:13:51;;;;;;;3.38;1.20;;;;;;;;;;5073111;28;20048;-77
2022/05/21 10:16:39;;;;;;;4.90;1.95;;;;;;;;;;5071500;28;20091;-76
2022/05/21 10:19:05;;;;;;;2.92;1.40;;;;;;;;;;5071505;28;20490;-76
2022/05/21 10:21:35;;;;;;;5.90;1.25;;;;;;;;;;5072648;28;20024;-77
2022/05/21 10:24:10;;;;;;;3.33;1.00;;;;;;;;;;5072932;28;20028;-76
2022/05/21 10:26:57;;;;;;;4.95;1.38;;;;;;;;;;5071097;28;20032;-76
2022/05/21 10:30:17;;;;;;;3.80;1.20;;;;;;;;;;5070786;28;20067;-76
2022/05/21 10:32:52;;;;;;;1.95;1.10;;;;;;;;;;5010709;28;20074;-76
2022/05/21 10:35:48;;;;;;;2.78;1.10;;;;;;;;;;5058878;28;20482;-76
2022/05/21 10:39:01;;;;;;;2.75;1.27;;;;;;;;;;5073440;28;20058;-76
2022/05/21 10:41:55;;;;;;;5.38;1.13;;;;;;;;;;4993757;28;20026;-74
2022/05/21 10:44:35;;;;;;;4.47;1.10;;;;;;;;;;4994109;28;20489;-76
2022/05/21 10:47:07;;;;;;;3.75;1.55;;;;;;;;;;5076552;28;20059;-75
2022/05/21 10:50:00;;;;;;;3.40;1.35;;;;;;;;;;5074433;28;20059;-78
2022/05/21 10:52:44;;;;;;;5.13;1.45;;;;;;;;;;5092719;28;20031;-77
2022/05/21 10:55:26;;;;;;;;;;;;;;;;;;5074537;28;20028;-76
2022/05/21 10:58:12;;;;;;;3.50;1.30;;;;;;;;;;5074514;28;20317;-76
2022/05/21 11:00:53;;;;;;;3.85;1.42;;;;;;;;;;5074612;28;20016;-76
2022/05/21 11:04:01;;;;;;;10.40;1.52;;;;;;;;;;5092602;28;20073;-76
2022/05/21 11:06:44;;;;;;;3.25;1.35;;;;;;;;;;5036157;28;20372;-77
2022/05/21 11:09:15;;;;;;;4.75;1.17;;;;;;;;;;5092399;28;20039;-77
2022/05/21 11:12:13;;;;;;;6.00;1.48;;;;;;;;;;5074384;28;20462;-77
2022/05/21 11:14:50;;;;;;;5.13;1.30;;;;;;;;;;5036950;28;20040;-77
2022/05/21 11:17:46;;;;;;;4.75;1.42;;;;;;;;;;5074434;28;20024;-77
2022/05/21 11:20:27;;;;;;;4.13;1.40;;;;;;;;;;5057724;28;20034;-79
2022/05/21 11:22:54;;;;;;;2.15;1.30;;;;;;;;;;5074435;28;20095;-77
2022/05/21 11:25:41;;;;;;;1.75;1.00;;;;;;;;;;5074198;28;20026;-77
2022/05/21 11:28:31;;;;;;;2.78;1.20;;;;;;;;;;5092561;28;20028;-77
2022/05/21 11:31:00;;;;;;;4.90;1.33;;;;;;;;;;5074199;28;20505;-77
2022/05/21 11:39:04;;;;;;;6.72;2.30;;;;;;;;;;5096505;28;20158;-77
2022/05/21 11:42:07;;;;;;;6.70;1.88;;;;;;;;;;5076861;28;20482;-78
2022/05/21 11:45:14;;;;;;;5.40;2.30;;;;;;;;;;5093861;28;20438;-78
2022/05/21 11:47:54;;;;;;;4.35;1.70;;;;;;;;;;5010213;28;20085;-78
2022/05/21 11:50:25;;;;;;;5.35;1.83;;;;;;;;;;4994087;28;20092;-80
2022/05/21 11:52:54;;;;;;;3.38;1.48;;;;;;;;;;4993349;28;20117;-78
2022/05/21 11:55:21;;;;;;;7.15;1.42;;;;;;;;;;5010116;28;20112;-79
2022/05/21 11:57:54;;;;;;;6.35;1.85;;;;;;;;;;4996462;28;20468;-78
2022/05/21 12:00:24;;;;;;;5.32;1.92;;;;;;;;;;5014137;28;20033;-78
2022/05/21 12:02:53;;;;;;;2.72;1.08;;;;;;;;;;5013752;28;20518;-78
2022/05/21 12:05:40;;;;;;;4.63;1.20;;;;;;;;;;5012327;28;20036;-79
2022/05/21 12:08:20;;;;;;;5.35;1.90;;;;;;;;;;4974486;28;20556;-79
2022/05/21 12:10:58;;;;;;;5.53;1.38;;;;;;;;;;4958345;28;20122;-79
2022/05/21 12:13:33;;;;;;;7.68;1.35;;;;;;;;;;4958364;28;20041;-79
2022/05/21 12:15:59;;;;;;;3.92;1.20;;;;;;;;;;4958081;28;20038;-79
2022/05/21 12:18:25;;;;;;;3.38;1.65;;;;;;;;;;4942082;28;20097;-79
2022/05/21 12:20:51;;;;;;;4.10;1.60;;;;;;;;;;4992333;28;20386;-79
2022/05/21 12:23:31;;;;;;;3.50;1.40;;;;;;;;;;5040591;28;20035;-79
2022/05/21 12:26:02;;;;;;;3.20;1.27;;;;;;;;;;5075404;28;20020;-79
2022/05/21 12:28:36;;;;;;;4.20;1.48;;;;;;;;;;5057112;28;20104;-79
2022/05/21 12:31:06;;;;;;;3.45;1.50;;;;;;;;;;5074096;28;20359;-79
2022/05/21 12:33:38;;;;;;;5.13;1.45;;;;;;;;;;5057859;28;20029;-79
2022/05/21 12:36:19;;;;;;;3.00;1.20;;;;;;;;;;5041357;28;20120;-78
2022/05/21 12:38:46;;;;;;;5.45;1.90;;;;;;;;;;5057044;28;20095;-78
2022/05/21 12:41:26;;;;;;;2.72;1.30;;;;;;;;;;5056473;28;20020;-79
2022/05/21 12:43:53;;;;;;;3.30;1.25;;;;;;;;;;5039378;28;20052;-79
2022/05/21 12:46:19;;;;;;;5.68;1.40;;;;;;;;;;5056405;28;20021;-79
2022/05/21 12:48:45;;;;;;;1.83;0.88;;;;;;;;;;5056574;28;20028;-79
2022/05/21 12:51:20;;;;;;;3.20;1.30;;;;;;;;;;5074482;28;20036;-79
2022/05/21 12:53:48;;;;;;;5.95;1.40;;;;;;;;;;5056650;28;20448;-79
2022/05/21 12:56:24;;;;;;;2.88;1.20;;;;;;;;;;5039114;28;20396;-79
2022/05/21 12:59:21;;;;;;;3.58;1.20;;;;;;;;;;5074156;28;20100;-79
2022/05/21 13:01:56;;;;;;;2.65;1.40;;;;;;;;;;5055723;28;20077;-80
2022/05/21 13:04:26;;;;;;;3.08;1.27;;;;;;;;;;5055551;28;20042;-80
2022/05/21 13:06:55;;;;;;;2.25;1.20;;;;;;;;;;5073771;28;20060;-80
2022/05/21 13:09:21;;;;;;;2.50;1.10;;;;;;;;;;5054786;28;20055;-79
2022/05/21 13:11:47;;;;;;;2.95;1.02;;;;;;;;;;5073353;28;20052;-79
2022/05/21 13:14:27;;;;;;;1.63;0.90;;;;;;;;;;5055641;28;20206;-80
2022/05/21 13:16:54;;;;;;;1.65;1.00;;;;;;;;;;5055496;28;20514;-80
2022/05/21 13:19:34;;;;;;;5.68;0.95;;;;;;;;;;5022027;28;20039;-80
2022/05/21 13:22:14;;;;;;;3.22;0.80;;;;;;;;;;5055563;28;20063;-80
2022/05/21 13:24:53;;;;;;;4.93;1.00;;;;;;;;;;5055347;28;20025;-80
2022/05/21 13:27:21;;;;;;;4.15;1.70;;;;;;;;;;5073528;28;20028;-80
2022/05/21 13:29:48;;;;;;;5.45;1.30;;;;;;;;;;5055230;28;20024;-79
2022/05/21 13:32:24;;;;;;;3.13;1.00;;;;;;;;;;5038539;28;20036;-79
2022/05/21 13:34:51;;;;;;;3.75;0.93;;;;;;;;;;5073161;28;20101;-80
2022/05/21 13:37:17;;;;;;;2.38;1.02;;;;;;;;;;5055201;28;20036;-80
2022/05/21 13:39:56;;;;;;;1.45;0.80;;;;;;;;;;5015144;28;1157322;-79
2022/05/21 13:42:23;;;;;;;2.53;0.95;;;;;;;;;;5056156;28;20036;-79
2022/05/21 13:44:49;;;;;;;2.05;0.82;;;;;;;;;;5056186;28;20037;-79
2022/05/21 13:47:26;;;;;;;5.55;1.75;;;;;;;;;;5039163;28;20028;-79
2022/05/21 13:49:54;;;;;;;2.42;0.95;;;;;;;;;;5055769;28;20031;-79
2022/05/21 13:52:21;;;;;;;4.22;1.38;;;;;;;;;;5039050;28;20024;-79
2022/05/21 13:54:47;;;;;;;1.95;1.00;;;;;;;;;;5039346;28;20083;-79
2022/05/21 13:57:21;;;;;;;3.20;1.20;;;;;;;;;;5038910;28;20422;-79
2022/05/21 13:59:59;;;;;;;5.53;1.35;;;;;;;;;;5055314;28;20428;-79
2022/05/21 14:02:24;;;;;;;3.08;1.27;;;;;;;;;;5055554;28;20493;-79
2022/05/21 14:04:50;;;;;;;3.00;1.08;;;;;;;;;;5055271;28;20036;-79
2022/05/21 14:07:37;;;;;;;3.80;1.42;;;;;;;;;;5055331;28;20111;-79
2022/05/21 14:10:05;;;;;;;2.15;1.10;;;;;;;;;;5055636;28;20036;-79
2022/05/21 14:12:52;;;;;;;2.70;1.35;;;;;;;;;;5055046;28;20162;-79
2022/05/21 14:15:24;;;;;;;3.65;1.20;;;;;;;;;;5055147;28;20092;-79
2022/05/21 14:17:55;;;;;;;5.22;1.30;;;;;;;;;;5055213;28;20062;-80
2022/05/21 14:20:31;;;;;;;2.63;1.17;;;;;;;;;;5074099;28;20048;-80
2022/05/21 14:23:22;;;;;;;3.85;1.35;;;;;;;;;;5059719;28;20020;-80
2022/05/21 14:25:47;;;;;;;4.68;1.38;;;;;;;;;;5057475;28;20047;-79
2022/05/21 14:28:16;;;;;;;2.28;1.25;;;;;;;;;;5056048;28;20037;-79
2022/05/21 14:30:44;;;;;;;2.47;1.17;;;;;;;;;;5056191;28;20469;-80
2022/05/21 14:33:16;;;;;;;3.38;1.20;;;;;;;;;;5055090;28;20043;-80
2022/05/21 14:35:43;;;;;;;3.85;1.27;;;;;;;;;;5073350;28;20169;-80
2022/05/21 14:38:08;;;;;;;5.40;1.42;;;;;;;;;;5054748;28;20031;-80
2022/05/21 14:40:44;;;;;;;3.22;1.17;;;;;;;;;;5072937;28;20033;-80
2022/05/21 14:43:17;;;;;;;6.05;1.70;;;;;;;;;;5072755;28;20054;-79
2022/05/21 14:45:43;;;;;;;4.30;1.63;;;;;;;;;;5038175;28;20356;-78
2022/05/21 14:48:08;;;;;;;2.50;1.08;;;;;;;;;;5072927;28;20039;-80
2022/05/21 14:53:28;;;;;;;3.67;1.38;;;;;;;;;;5058034;28;20093;-79
2022/05/21 14:55:54;;;;;;;3.17;1.20;;;;;;;;;;5056486;28;20099;-80
2022/05/21 14:58:20;;;;;;;7.25;1.40;;;;;;;;;;5042267;28;20544;-80
2022/05/21 15:00:46;;;;;;;6.45;1.80;;;;;;;;;;5056134;28;20028;-80
2022/05/21 15:03:11;;;;;;;4.43;1.60;;;;;;;;;;5054786;28;20054;-80
2022/05/21 15:05:39;;;;;;;3.83;1.17;;;;;;;;;;5054452;28;20028;-79
2022/05/21 15:08:07;;;;;;;4.78;1.20;;;;;;;;;;5054588;28;20040;-79
2022/05/21 15:10:32;;;;;;;4.97;1.20;;;;;;;;;;5072293;28;20036;-79
2022/05/21 15:12:58;;;;;;;3.28;1.30;;;;;;;;;;5054360;28;20024;-80
2022/05/21 15:15:23;;;;;;;3.83;1.42;;;;;;;;;;5037756;28;20035;-80
2022/05/21 15:17:49;;;;;;;4.05;1.23;;;;;;;;;;5054170;28;20036;-80
2022/05/21 15:20:17;;;;;;;4.05;1.30;;;;;;;;;;5037544;28;20063;-79
2022/05/21 15:22:44;;;;;;;5.82;1.70;;;;;;;;;;5054395;28;20028;-78
2022/05/21 15:25:12;;;;;;;16.80;1.58;;;;;;;;;;5037446;28;20032;-80
2022/05/21 15:27:38;;;;;;;7.60;1.75;;;;;;;;;;5054302;28;20478;-79
2022/05/21 15:30:06;;;;;;;7.80;1.50;;;;;;;;;;5037557;28;20029;-79
2022/05/21 15:32:31;;;;;;;4.68;1.55;;;;;;;;;;5020916;28;20028;-79
2022/05/21 15:34:57;;;;;;;9.80;1.52;;;;;;;;;;5037571;28;20486;-79